Time;durP1;ratioP1;P1;durP2;ratioP2;P2;SDS_P1;SDS_P2;PMS_P1;PMS_P2;Temp;Humidity;BMP_temperature;BMP_pressure;BME280_temperature;BME280_humidity;BME280_pressure;Samples;Min_cycle;Max_cycle;Signal;HPM_P1;HPM_P2
2023/01/01 00:00:57;;;;;;;;;;;;;;;18.03;66.84;100408.16;2265682;78;50739;-74
2023/01/01 00:03:59;;;;;;;;;;;;;;;18.08;66.90;100414.79;2235668;78;50966;-74
2023/01/01 00:07:00;;;;;;;;;;;;;;;18.11;67.10;100433.16;2260938;78;50302;-74
2023/01/01 00:13:22;;;;;;;;;;;;;;;18.16;67.23;100426.73;2252215;77;22406;-74
2023/01/01 00:16:23;;;;;;;;;;;;;;;18.17;67.28;100435.11;2247846;78;52600;-73
2023/01/01 00:19:25;;;;;;;;;;;;;;;18.17;67.23;100433.77;2251734;78;50747;-74
2023/01/01 00:22:26;;;;;;;;;;;;;;;18.18;67.19;100435.42;2274531;77;50048;-75
2023/01/01 00:25:29;;;;;;;;;;;;;;;18.15;67.24;100437.14;2266588;78;50363;-75
2023/01/01 00:28:30;;;;;;;;;;;;;;;18.12;67.26;100440.19;2248978;78;52594;-75
2023/01/01 00:31:32;;;;;;;;;;;;;;;18.10;67.34;100447.57;2250268;78;50519;-74
2023/01/01 00:34:33;;;;;;;;;;;;;;;18.03;67.43;100442.97;2266508;78;50418;-74
2023/01/01 00:37:35;;;;;;;;;;;;;;;18.01;67.53;100453.53;2243092;78;50381;-74
2023/01/01 00:40:37;;;;;;;;;;;;;;;17.98;67.50;100454.73;2238420;78;49617;-75
2023/01/01 00:43:38;;;;;;;;;;;;;;;17.96;67.51;100466.12;2265864;78;50596;-75
2023/01/01 00:46:40;;;;;;;;;;;;;;;17.92;67.57;100464.81;2264233;78;50782;-75
2023/01/01 00:49:41;;;;;;;;;;;;;;;17.91;67.62;100464.50;2265988;78;51456;-74
2023/01/01 00:52:43;;;;;;;;;;;;;;;17.90;67.59;100456.13;2240902;78;52705;-74
2023/01/01 00:55:44;;;;;;;;;;;;;;;17.90;67.64;100465.50;2264167;78;51364;-76
2023/01/01 00:58:46;;;;;;;;;;;;;;;17.91;67.55;100460.49;2264129;78;51517;-75
2023/01/01 01:01:48;;;;;;;;;;;;;;;17.92;67.50;100463.48;2265985;78;50106;-75
2023/01/01 01:04:49;;;;;;;;;;;;;;;17.91;67.56;100468.52;2266579;76;49539;-75
2023/01/01 01:07:51;;;;;;;;;;;;;;;17.90;67.58;100474.05;2265970;78;50380;-75
2023/01/01 01:10:53;;;;;;;;;;;;;;;17.90;67.51;100466.84;2270146;75;50771;-75
2023/01/01 01:13:55;;;;;;;;;;;;;;;17.91;67.48;100470.38;2262201;78;50376;-76
2023/01/01 01:16:56;;;;;;;;;;;;;;;17.91;67.48;100475.21;2241006;78;50954;-76
2023/01/01 01:19:58;;;;;;;;;;;;;;;17.91;67.48;100479.74;2262583;77;49924;-75
2023/01/01 01:22:59;;;;;;;;;;;;;;;17.92;67.44;100480.87;2255354;78;50378;-75
2023/01/01 01:26:09;;;;;;;;;;;;;;;17.89;67.58;100477.23;2260998;78;50392;-74
2023/01/01 01:29:10;;;;;;;;;;;;;;;17.90;67.69;100478.06;2209504;79;51745;-75
2023/01/01 01:32:12;;;;;;;;;;;;;;;17.97;67.58;100479.82;2262227;77;51529;-76
2023/01/01 01:35:13;;;;;;;;;;;;;;;18.04;67.40;100478.59;2259604;77;51506;-76
2023/01/01 01:38:15;;;;;;;;;;;;;;;18.08;67.32;100476.38;2261442;78;51536;-76
2023/01/01 01:41:17;;;;;;;;;;;;;;;18.10;67.26;100478.36;2236669;79;52349;-76
2023/01/01 01:44:37;;;;;;;;;;;;;;;18.10;67.18;100471.67;2250964;79;51603;-80
2023/01/01 01:47:52;;;;;;;;;;;;;;;18.09;67.19;100482.06;2261321;78;53808;-76
2023/01/01 01:50:55;;;;;;;;;;;;;;;18.08;67.18;100487.08;2264456;78;51558;-75
2023/01/01 01:53:58;;;;;;;;;;;;;;;18.05;67.24;100484.27;2264421;78;50457;-77
2023/01/01 01:57:03;;;;;;;;;;;;;;;18.03;67.30;100483.12;2264161;78;50678;-76
2023/01/01 02:00:05;;;;;;;;;;;;;;;18.00;67.32;100484.80;2258230;78;50378;-75
2023/01/01 02:03:11;;;;;;;;;;;;;;;17.95;67.45;100481.84;2265444;78;51599;-76
2023/01/01 02:06:13;;;;;;;;;;;;;;;17.96;67.47;100476.84;2240784;78;50988;-77
2023/01/01 02:09:14;;;;;;;;;;;;;;;17.94;67.51;100484.20;2264562;78;50725;-75
2023/01/01 02:12:16;;;;;;;;;;;;;;;17.92;67.58;100486.23;2266112;78;50974;-77
2023/01/01 02:15:18;;;;;;;;;;;;;;;17.91;67.64;100489.11;2264350;78;51462;-75
2023/01/01 02:18:21;;;;;;;;;;;;;;;17.85;67.70;100486.62;2265962;78;52309;-76
2023/01/01 02:21:30;;;;;;;;;;;;;;;17.84;67.70;100481.79;2264600;78;50390;-76
2023/01/01 02:24:34;;;;;;;;;;;;;;;17.84;67.71;100486.31;2264512;78;50693;-77
2023/01/01 02:27:37;;;;;;;;;;;;;;;17.83;67.71;100490.02;2264313;78;50783;-76
2023/01/01 02:30:38;;;;;;;;;;;;;;;17.87;67.60;100474.41;2242125;77;51946;-77
2023/01/01 02:33:40;;;;;;;;;;;;;;;17.84;67.74;100479.62;2264575;78;51574;-76
2023/01/01 02:36:43;;;;;;;;;;;;;;;17.92;67.72;100484.06;2264296;78;51457;-75
2023/01/01 02:39:46;;;;;;;;;;;;;;;17.97;67.53;100491.87;2264535;78;51548;-76
2023/01/01 02:42:48;;;;;;;;;;;;;;;17.98;67.47;100484.18;2264513;78;51435;-76
2023/01/01 02:45:50;;;;;;;;;;;;;;;17.98;67.49;100482.84;2264382;78;51450;-75
2023/01/01 02:48:51;;;;;;;;;;;;;;;17.97;67.47;100478.48;2264296;78;50298;-76
2023/01/01 02:52:04;;;;;;;;;;;;;;;17.96;67.51;100480.02;2264455;78;51519;-75
2023/01/01 02:55:23;;;;;;;;;;;;;;;17.94;67.56;100480.19;2264463;78;51553;-76
2023/01/01 03:01:57;;;;;;;;;;;;;;;17.90;67.64;100470.03;2252651;78;22133;-76
2023/01/01 03:05:03;;;;;;;;;;;;;;;17.85;67.71;100455.84;2269143;77;50435;-76
2023/01/01 03:08:10;;;;;;;;;;;;;;;17.88;67.80;100462.20;2245650;78;51050;-76
2023/01/01 03:11:13;;;;;;;;;;;;;;;17.92;67.67;100465.33;2269064;78;50290;-76
2023/01/01 03:14:25;;;;;;;;;;;;;;;17.93;67.61;100477.69;2269019;77;51556;-77
2023/01/01 03:17:28;;;;;;;;;;;;;;;17.93;67.60;100472.33;2268858;77;51518;-75
2023/01/01 03:20:31;;;;;;;;;;;;;;;17.93;67.63;100481.70;2245570;78;52332;-76
2023/01/01 03:23:45;;;;;;;;;;;;;;;17.91;67.67;100487.25;2269099;77;50667;-76
2023/01/01 03:26:47;;;;;;;;;;;;;;;17.90;67.70;100492.78;2268919;77;51522;-76
2023/01/01 03:29:50;;;;;;;;;;;;;;;17.87;67.72;100489.96;2262829;78;50683;-76
2023/01/01 03:33:06;;;;;;;;;;;;;;;17.86;67.70;100494.17;2238047;79;49611;-75
2023/01/01 03:36:26;;;;;;;;;;;;;;;17.86;67.69;100489.65;2250839;79;50305;-76
2023/01/01 03:39:29;;;;;;;;;;;;;;;17.86;67.87;100485.64;2250963;78;51549;-76
2023/01/01 03:42:32;;;;;;;;;;;;;;;17.90;67.79;100485.58;2251107;79;50864;-75
2023/01/01 03:45:35;;;;;;;;;;;;;;;17.91;67.72;100485.92;2261693;78;51043;-76
2023/01/01 03:48:54;;;;;;;;;;;;;;;17.92;67.75;100499.61;2250324;78;50362;-76
2023/01/01 03:51:58;;;;;;;;;;;;;;;17.93;67.74;100487.05;2252760;78;22341;-76
2023/01/01 03:55:07;;;;;;;;;;;;;;;17.89;67.82;100482.59;2250977;79;51579;-75
2023/01/01 03:58:16;;;;;;;;;;;;;;;17.87;67.80;100497.99;2250876;79;51546;-76
2023/01/01 04:01:19;;;;;;;;;;;;;;;17.86;67.84;100511.06;2259190;78;51602;-75
2023/01/01 04:04:21;;;;;;;;;;;;;;;17.83;67.84;100506.91;2269031;78;55237;-76
2023/01/01 04:07:22;;;;;;;;;;;;;;;17.85;67.75;100504.03;2269001;77;51596;-74
2023/01/01 04:10:24;;;;;;;;;;;;;;;17.82;67.92;100513.77;2269184;77;50719;-76
2023/01/01 04:13:26;;;;;;;;;;;;;;;17.88;67.92;100515.73;2268941;77;50375;-75
2023/01/01 04:16:27;;;;;;;;;;;;;;;17.94;67.77;100522.20;2268913;77;50299;-76
2023/01/01 04:19:29;;;;;;;;;;;;;;;17.95;67.76;100534.05;2269040;77;50227;-76
2023/01/01 04:22:30;;;;;;;;;;;;;;;17.94;67.79;100538.27;2245530;78;49628;-76
2023/01/01 04:25:32;;;;;;;;;;;;;;;17.96;67.73;100546.95;2269100;77;50244;-75
2023/01/01 04:28:33;;;;;;;;;;;;;;;17.93;67.77;100536.09;2261444;78;50647;-76
2023/01/01 04:31:35;;;;;;;;;;;;;;;17.92;67.76;100539.77;2264587;78;51603;-75
2023/01/01 04:34:37;;;;;;;;;;;;;;;17.90;67.82;100547.14;2266024;78;50978;-74
2023/01/01 04:37:39;;;;;;;;;;;;;;;17.87;67.84;100542.16;2265860;78;51416;-75
2023/01/01 04:40:40;;;;;;;;;;;;;;;17.84;67.90;100538.51;2265749;78;51659;-76
2023/01/01 04:43:44;;;;;;;;;;;;;;;17.84;67.94;100539.33;2233914;78;51479;-75
2023/01/01 04:46:45;;;;;;;;;;;;;;;17.83;67.93;100540.36;2185523;78;49731;-75
2023/01/01 04:49:47;;;;;;;;;;;;;;;17.84;67.95;100550.55;2232144;78;50368;-75
2023/01/01 04:52:51;;;;;;;;;;;;;;;17.83;67.90;100551.58;2209648;78;50649;-76
2023/01/01 04:55:52;;;;;;;;;;;;;;;17.81;67.90;100552.26;2256537;78;23081;-76
2023/01/01 04:58:55;;;;;;;;;;;;;;;17.80;68.02;100553.25;2242137;78;50963;-76
2023/01/01 05:01:57;;;;;;;;;;;;;;;17.79;67.99;100552.42;2266646;77;22430;-76
2023/01/01 05:04:58;;;;;;;;;;;;;;;17.79;67.92;100549.75;2266430;76;50346;-76
2023/01/01 05:08:00;;;;;;;;;;;;;;;17.82;67.80;100551.23;2265205;78;50341;-76
2023/01/01 05:11:02;;;;;;;;;;;;;;;17.83;67.78;100555.08;2217737;78;51858;-76
2023/01/01 05:14:03;;;;;;;;;;;;;;;17.82;67.88;100556.59;2269013;78;50442;-75
2023/01/01 05:17:05;;;;;;;;;;;;;;;17.84;68.02;100549.21;2268827;77;51588;-76
2023/01/01 05:20:07;;;;;;;;;;;;;;;17.91;67.81;100560.87;2268909;77;50400;-76
2023/01/01 05:23:09;;;;;;;;;;;;;;;17.93;67.74;100552.16;2247690;78;49705;-76
2023/01/01 05:26:11;;;;;;;;;;;;;;;17.94;67.71;100547.12;2240317;77;50259;-75
2023/01/01 05:29:12;;;;;;;;;;;;;;;17.93;67.70;100557.52;2232062;79;51557;-75
2023/01/01 05:32:14;;;;;;;;;;;;;;;17.91;67.75;100568.90;2209343;79;50269;-76
2023/01/01 05:35:15;;;;;;;;;;;;;;;17.91;67.70;100566.22;2191601;78;51296;-75
2023/01/01 05:38:17;;;;;;;;;;;;;;;17.88;67.83;100573.77;2236301;78;51527;-74
2023/01/01 05:41:19;;;;;;;;;;;;;;;17.86;67.83;100567.27;2269034;78;50192;-75
2023/01/01 05:44:20;;;;;;;;;;;;;;;17.86;67.76;100573.96;2269007;78;51494;-74
2023/01/01 05:47:22;;;;;;;;;;;;;;;17.82;67.85;100573.47;2245330;77;50268;-75
2023/01/01 05:50:23;;;;;;;;;;;;;;;17.83;67.88;100568.98;2268919;78;50283;-76
2023/01/01 05:53:25;;;;;;;;;;;;;;;17.84;67.90;100570.62;2269133;77;50369;-76
2023/01/01 05:56:27;;;;;;;;;;;;;;;17.85;67.92;100574.95;2270246;77;50673;-76
2023/01/01 05:59:28;;;;;;;;;;;;;;;17.90;67.87;100580.60;2243777;78;51172;-75
2023/01/01 06:02:30;;;;;;;;;;;;;;;17.89;67.77;100570.92;2268509;78;50330;-76
2023/01/01 06:05:32;;;;;;;;;;;;;;;17.89;67.66;100577.61;2267004;78;51514;-76
2023/01/01 06:08:33;;;;;;;;;;;;;;;17.87;67.73;100584.16;2238009;78;51480;-76
2023/01/01 06:11:35;;;;;;;;;;;;;;;17.84;67.78;100574.64;2261283;78;51134;-76
2023/01/01 06:14:36;;;;;;;;;;;;;;;17.87;67.71;100568.92;2261361;78;50103;-76
2023/01/01 06:17:38;;;;;;;;;;;;;;;17.88;67.70;100577.30;2250589;79;50246;-75
2023/01/01 06:20:40;;;;;;;;;;;;;;;17.83;67.84;100577.00;2250493;79;50796;-76
2023/01/01 06:23:41;;;;;;;;;;;;;;;17.81;67.84;100582.52;2239139;78;52463;-76
2023/01/01 06:26:43;;;;;;;;;;;;;;;17.82;67.80;100596.73;2250186;78;50650;-76
2023/01/01 06:29:44;;;;;;;;;;;;;;;17.81;67.86;100585.72;2266641;77;51419;-76
2023/01/01 06:32:46;;;;;;;;;;;;;;;17.82;67.94;100593.55;2268646;77;51467;-76
2023/01/01 06:35:47;;;;;;;;;;;;;;;17.84;67.77;100601.41;2239849;78;51160;-75
2023/01/01 06:38:50;;;;;;;;;;;;;;;17.85;67.70;100604.39;2243043;77;50102;-75
2023/01/01 06:41:52;;;;;;;;;;;;;;;17.84;67.64;100596.87;2250713;79;51486;-75
2023/01/01 06:44:53;;;;;;;;;;;;;;;17.84;67.65;100601.41;2257368;78;51518;-76
2023/01/01 06:47:56;;;;;;;;;;;;;;;17.84;67.67;100612.11;2234086;78;51135;-76
2023/01/01 06:50:58;;;;;;;;;;;;;;;17.81;67.82;100607.13;2266512;77;51642;-75
2023/01/01 06:54:00;;;;;;;;;;;;;;;17.85;67.80;100612.42;2263119;78;51466;-75
2023/01/01 06:57:01;;;;;;;;;;;;;;;17.91;67.61;100615.75;2271086;77;50564;-76
2023/01/01 07:00:03;;;;;;;;;;;;;;;17.91;67.55;100611.73;2242214;78;52605;-76
2023/01/01 07:03:05;;;;;;;;;;;;;;;17.92;67.50;100621.41;2265221;77;51273;-75
2023/01/01 07:06:06;;;;;;;;;;;;;;;17.92;67.44;100612.05;2279377;77;50393;-76
2023/01/01 07:09:08;;;;;;;;;;;;;;;17.90;67.48;100628.78;2266662;78;51553;-76
2023/01/01 07:12:09;;;;;;;;;;;;;;;17.89;67.47;100628.47;2240958;78;50980;-75
2023/01/01 07:15:11;;;;;;;;;;;;;;;17.87;67.50;100626.98;2262517;78;51544;-76
2023/01/01 07:18:13;;;;;;;;;;;;;;;17.88;67.42;100628.63;2254758;77;50334;-76
2023/01/01 07:21:32;;;;;;;;;;;;;;;17.86;67.44;100634.19;2252019;78;50387;-76
2023/01/01 07:24:34;;;;;;;;;;;;;;;17.83;67.49;100641.23;2236665;77;50919;-76
2023/01/01 07:27:36;;;;;;;;;;;;;;;17.80;67.57;100646.92;2266513;77;51470;-76
2023/01/01 07:30:37;;;;;;;;;;;;;;;17.78;67.59;100652.95;2253199;78;50670;-76
2023/01/01 07:33:39;;;;;;;;;;;;;;;17.79;67.59;100653.27;2263400;77;49934;-75
2023/01/01 07:36:40;;;;;;;;;;;;;;;17.79;67.54;100657.28;2221398;78;51174;-76
2023/01/01 07:39:42;;;;;;;;;;;;;;;17.80;67.49;100660.30;2253469;77;50400;-76
2023/01/01 07:42:43;;;;;;;;;;;;;;;17.80;67.46;100659.83;2262764;78;50404;-74
2023/01/01 07:45:45;;;;;;;;;;;;;;;17.81;67.42;100662.81;2245817;77;50375;-74
2023/01/01 07:48:47;;;;;;;;;;;;;;;17.81;67.39;100662.81;2224763;78;50099;-75
2023/01/01 07:51:48;;;;;;;;;;;;;;;17.82;67.34;100665.81;2263251;77;51462;-75
2023/01/01 07:54:50;;;;;;;;;;;;;;;17.81;67.40;100671.36;2266478;77;51624;-75
2023/01/01 07:57:51;;;;;;;;;;;;;;;17.80;67.37;100685.73;2256814;78;51503;-75
2023/01/01 08:00:53;;;;;;;;;;;;;;;17.79;67.41;100692.08;2237939;78;50903;-74
2023/01/01 08:03:54;;;;;;;;;;;;;;;17.79;67.41;100713.01;2263614;77;50240;-74
2023/01/01 08:06:56;;;;;;;;;;;;;;;17.78;67.45;100701.13;2252123;78;50410;-73
2023/01/01 08:09:58;;;;;;;;;;;;;;;17.79;67.63;100702.78;2207996;78;50302;-72
2023/01/01 08:13:00;;;;;;;;;;;;;;;17.85;68.03;100712.80;2247422;78;52836;-73
2023/01/01 08:16:01;;;;;;;;;;;;;;;17.90;68.02;100726.49;2261312;77;50250;-73
2023/01/01 08:19:03;;;;;;;;;;;;;;;17.93;67.95;100712.78;2260573;77;51377;-73
2023/01/01 08:22:05;;;;;;;;;;;;;;;17.93;67.94;100713.25;2251162;77;50392;-75
2023/01/01 08:25:07;;;;;;;;;;;;;;;17.96;67.93;100723.12;2231941;79;50334;-73
2023/01/01 08:28:08;;;;;;;;;;;;;;;17.99;67.90;100711.23;2242791;78;52378;-73
2023/01/01 08:31:10;;;;;;;;;;;;;;;17.99;67.59;100720.09;2268907;77;50699;-72
2023/01/01 08:34:12;;;;;;;;;;;;;;;17.98;67.56;100717.58;2270556;77;51523;-73
2023/01/01 08:37:13;;;;;;;;;;;;;;;17.97;67.54;100719.42;2266791;78;51657;-73
2023/01/01 08:40:15;;;;;;;;;;;;;;;17.95;67.54;100726.80;2231323;78;52439;-74
2023/01/01 08:43:16;;;;;;;;;;;;;;;17.95;67.56;100734.83;2266768;77;51319;-75
2023/01/01 08:46:18;;;;;;;;;;;;;;;17.95;67.54;100730.81;2260023;78;51320;-75
2023/01/01 08:49:20;;;;;;;;;;;;;;;17.94;67.47;100726.48;2245775;78;51411;-75
2023/01/01 08:52:21;;;;;;;;;;;;;;;17.95;67.45;100740.18;2209168;79;50077;-75
2023/01/01 08:55:23;;;;;;;;;;;;;;;17.94;67.50;100746.55;2234277;78;50397;-74
2023/01/01 08:58:24;;;;;;;;;;;;;;;17.95;67.52;100752.73;2262392;78;50405;-76
2023/01/01 09:01:26;;;;;;;;;;;;;;;17.96;67.90;100751.23;2268937;78;50478;-76
2023/01/01 09:04:28;;;;;;;;;;;;;;;17.95;65.63;100768.80;2268403;78;51584;-76
2023/01/01 09:07:30;;;;;;;;;;;;;;;17.85;66.29;100752.95;2270341;77;52265;-76
2023/01/01 09:10:31;;;;;;;;;;;;;;;17.86;66.19;100765.34;2270900;77;51443;-76
2023/01/01 09:13:33;;;;;;;;;;;;;;;17.89;65.43;100763.65;2268953;77;51562;-77
2023/01/01 09:16:35;;;;;;;;;;;;;;;17.87;65.05;100781.72;2245394;78;51084;-77
2023/01/01 09:19:36;;;;;;;;;;;;;;;17.87;66.00;100783.06;2270462;77;51543;-76
2023/01/01 09:22:38;;;;;;;;;;;;;;;17.85;66.56;100795.78;2269081;78;51400;-77
2023/01/01 09:25:39;;;;;;;;;;;;;;;17.86;66.55;100800.14;2270764;76;50236;-77
2023/01/01 09:28:41;;;;;;;;;;;;;;;17.89;66.11;100804.31;2243782;78;49539;-76
2023/01/01 09:31:42;;;;;;;;;;;;;;;17.91;66.01;100817.85;2263052;77;50356;-77
2023/01/01 09:34:44;;;;;;;;;;;;;;;17.95;65.79;100812.97;2274700;77;52425;-77
2023/01/01 09:37:46;;;;;;;;;;;;;;;18.00;65.57;100810.09;2264128;78;50626;-75
2023/01/01 09:41:01;;;;;;;;;;;;;;;18.03;65.37;100813.78;2247142;78;51007;-75
2023/01/01 09:44:04;;;;;;;;;;;;;;;18.04;65.27;100803.39;2260144;77;51572;-75
2023/01/01 09:47:08;;;;;;;;;;;;;;;18.12;65.09;100814.56;2266185;78;52217;-75
2023/01/01 09:50:16;;;;;;;;;;;;;;;18.05;64.63;100815.76;2266811;77;50417;-75
2023/01/01 09:53:20;;;;;;;;;;;;;;;18.05;64.11;100810.41;2219681;78;51316;-76
2023/01/01 09:56:28;;;;;;;;;;;;;;;18.06;64.56;100814.77;2245274;78;51565;-75
2023/01/01 09:59:29;;;;;;;;;;;;;;;18.06;65.05;100812.60;2266627;78;50402;-76
2023/01/01 10:02:33;;;;;;;;;;;;;;;17.98;65.89;100812.14;2266344;78;50176;-77
2023/01/01 10:05:45;;;;;;;;;;;;;;;17.98;65.78;100810.80;2245876;78;49630;-77
2023/01/01 10:08:57;;;;;;;;;;;;;;;17.98;66.09;100806.78;2268892;78;50432;-77
2023/01/01 10:12:04;;;;;;;;;;;;;;;17.98;66.42;100820.66;2269045;78;54890;-75
2023/01/01 10:15:10;;;;;;;;;;;;;;;18.00;66.78;100816.79;2269190;78;50410;-76
2023/01/01 10:18:13;;;;;;;;;;;;;;;18.01;66.81;100827.02;2244719;78;51379;-76
2023/01/01 10:21:16;;;;;;;;;;;;;;;18.00;67.06;100822.14;2268794;78;50436;-76
2023/01/01 10:24:20;;;;;;;;;;;;;;;17.99;67.24;100829.86;2269016;77;51508;-76
2023/01/01 10:27:29;;;;;;;;;;;;;;;17.99;67.23;100826.35;2258899;78;51519;-78
2023/01/01 10:30:31;;;;;;;;;;;;;;;17.98;67.67;100830.88;2241453;78;52878;-77
2023/01/01 10:33:32;;;;;;;;;;;;;;;17.99;67.70;100829.86;2264328;78;51585;-77
2023/01/01 10:36:34;;;;;;;;;;;;;;;18.02;67.40;100834.86;2244619;78;50122;-76
2023/01/01 10:39:35;;;;;;;;;;;;;;;18.04;67.36;100848.91;2275022;77;50484;-77
2023/01/01 10:42:37;;;;;;;;;;;;;;;18.03;67.22;100847.25;2249656;78;50089;-77
2023/01/01 10:45:46;;;;;;;;;;;;;;;18.05;67.18;100849.23;2266940;78;50751;-77
2023/01/01 10:48:53;;;;;;;;;;;;;;;18.09;67.01;100867.14;2264377;78;50673;-78
2023/01/01 10:51:54;;;;;;;;;;;;;;;18.12;66.88;100861.94;2259096;78;51491;-77
2023/01/01 10:54:56;;;;;;;;;;;;;;;18.15;66.88;100860.25;2242666;78;50055;-77
2023/01/01 10:57:57;;;;;;;;;;;;;;;18.18;66.98;100850.52;2266359;78;51469;-75
2023/01/01 11:01:00;;;;;;;;;;;;;;;18.24;67.01;100851.17;2254411;78;52309;-77
2023/01/01 11:04:02;;;;;;;;;;;;;;;18.26;66.94;100846.45;2262542;78;52450;-76
2023/01/01 11:07:05;;;;;;;;;;;;;;;18.28;66.99;100849.80;2240639;78;51831;-77
2023/01/01 11:10:07;;;;;;;;;;;;;;;18.29;67.02;100847.46;2264265;78;50760;-76
2023/01/01 11:13:16;;;;;;;;;;;;;;;18.31;67.07;100854.79;2264322;78;51498;-76
2023/01/01 11:16:17;;;;;;;;;;;;;;;18.31;67.17;100880.75;2261077;78;50486;-78
2023/01/01 11:19:23;;;;;;;;;;;;;;;18.32;67.23;100877.91;2265836;78;52705;-77
2023/01/01 11:22:39;;;;;;;;;;;;;;;18.33;67.19;100887.60;2264418;78;50882;-77
2023/01/01 11:25:40;;;;;;;;;;;;;;;18.35;67.26;100885.59;2264734;78;50466;-76
2023/01/01 11:28:42;;;;;;;;;;;;;;;18.36;67.16;100899.30;2265975;78;50427;-76
2023/01/01 11:31:44;;;;;;;;;;;;;;;18.36;67.41;100894.45;2244433;78;50490;-76
2023/01/01 11:34:46;;;;;;;;;;;;;;;18.36;67.51;100897.96;2266917;78;50387;-77
2023/01/01 11:37:48;;;;;;;;;;;;;;;18.34;67.54;100883.93;2266825;78;50275;-77
2023/01/01 11:40:51;;;;;;;;;;;;;;;18.34;67.44;100882.59;2267077;78;51517;-76
2023/01/01 11:43:52;;;;;;;;;;;;;;;18.35;67.20;100894.97;2241405;78;50991;-78
2023/01/01 11:46:54;;;;;;;;;;;;;;;18.37;67.33;100895.63;2266209;78;50784;-78
2023/01/01 11:49:57;;;;;;;;;;;;;;;18.39;67.27;100880.19;2264376;78;51501;-78
2023/01/01 11:53:00;;;;;;;;;;;;;;;18.40;67.25;100872.50;2264160;78;51394;-76
2023/01/01 11:56:07;;;;;;;;;;;;;;;18.41;67.22;100873.33;2240656;78;51743;-74
2023/01/01 11:59:15;;;;;;;;;;;;;;;18.44;67.29;100884.52;2263070;78;50784;-74
2023/01/01 12:02:18;;;;;;;;;;;;;;;18.44;67.49;100889.88;2264280;78;50410;-73
2023/01/01 12:05:21;;;;;;;;;;;;;;;18.45;67.47;100902.79;2264329;78;51654;-74
2023/01/01 12:08:24;;;;;;;;;;;;;;;18.47;67.40;100896.72;2261347;78;51496;-74
2023/01/01 12:11:30;;;;;;;;;;;;;;;18.45;67.18;100902.28;2267017;78;51600;-76
2023/01/01 12:14:48;;;;;;;;;;;;;;;18.43;67.27;100901.61;2262528;78;50743;-77
2023/01/01 12:17:52;;;;;;;;;;;;;;;18.47;67.22;100911.46;2244892;79;50467;-75
2023/01/01 12:20:55;;;;;;;;;;;;;;;18.50;66.98;100905.27;2232681;78;50437;-75
2023/01/01 12:23:56;;;;;;;;;;;;;;;18.51;66.95;100918.15;2254986;78;50479;-75
2023/01/01 12:27:02;;;;;;;;;;;;;;;18.48;66.95;100919.34;2266922;78;50411;-76
2023/01/01 12:30:11;;;;;;;;;;;;;;;18.45;67.04;100909.48;2252959;78;51647;-76
2023/01/01 12:33:27;;;;;;;;;;;;;;;18.46;67.02;100908.47;2245301;78;50148;-75
2023/01/01 12:36:42;;;;;;;;;;;;;;;18.48;66.98;100909.95;2266949;78;51563;-75
2023/01/01 12:39:54;;;;;;;;;;;;;;;18.48;66.94;100908.63;2267016;78;51514;-74
2023/01/01 12:43:14;;;;;;;;;;;;;;;18.49;66.86;100906.26;2267011;78;50680;-74
2023/01/01 12:46:17;;;;;;;;;;;;;;;18.50;66.85;100898.56;2247424;78;51314;-75
2023/01/01 12:49:36;;;;;;;;;;;;;;;18.50;66.86;100903.92;2250766;79;50480;-74
2023/01/01 12:52:48;;;;;;;;;;;;;;;18.50;66.96;100889.70;2233452;78;50681;-74
2023/01/01 12:55:52;;;;;;;;;;;;;;;18.51;66.89;100902.07;2232220;79;50839;-75
2023/01/01 12:59:04;;;;;;;;;;;;;;;18.52;66.92;100888.98;2209018;79;51923;-74
2023/01/01 13:02:10;;;;;;;;;;;;;;;18.56;67.03;100885.47;2232313;79;51498;-74
2023/01/01 13:05:17;;;;;;;;;;;;;;;18.56;67.02;100895.68;2231902;79;51548;-75
2023/01/01 13:08:18;;;;;;;;;;;;;;;18.55;67.07;100900.72;2231856;79;51601;-75
2023/01/01 13:11:22;;;;;;;;;;;;;;;18.54;67.03;100895.52;2209231;79;52677;-76
2023/01/01 13:14:23;;;;;;;;;;;;;;;18.53;67.08;100898.72;2236225;79;22854;-75
2023/01/01 13:17:25;;;;;;;;;;;;;;;18.55;67.23;100911.92;2264141;78;50454;-75
2023/01/01 13:20:27;;;;;;;;;;;;;;;18.54;67.25;100906.25;2264282;78;50820;-75
2023/01/01 13:23:30;;;;;;;;;;;;;;;18.56;67.28;100922.48;2266320;78;50978;-75
2023/01/01 13:26:32;;;;;;;;;;;;;;;18.56;67.31;100926.50;2264823;78;51528;-75
2023/01/01 13:29:33;;;;;;;;;;;;;;;18.57;67.33;100925.98;2263026;78;50631;-76
2023/01/01 13:32:37;;;;;;;;;;;;;;;18.59;67.46;100932.02;2269008;78;51493;-76
2023/01/01 13:35:38;;;;;;;;;;;;;;;18.62;67.67;100946.39;2266087;78;51577;-76
2023/01/01 13:38:59;;;;;;;;;;;;;;;18.64;68.00;100948.40;2255153;78;51509;-75
2023/01/01 13:42:00;;;;;;;;;;;;;;;18.60;67.97;100955.97;2257059;78;50392;-76
2023/01/01 13:45:02;;;;;;;;;;;;;;;18.58;67.86;100953.13;2271175;77;50708;-76
2023/01/01 13:48:14;;;;;;;;;;;;;;;18.54;67.88;100966.03;2230588;78;50847;-76
2023/01/01 13:51:21;;;;;;;;;;;;;;;18.49;67.92;100967.89;2266429;78;50776;-76
2023/01/01 13:54:41;;;;;;;;;;;;;;;18.48;67.96;100978.80;2265752;78;51710;-77
2023/01/01 13:57:44;;;;;;;;;;;;;;;18.45;67.99;100985.34;2256425;77;50437;-77
2023/01/01 14:01:04;;;;;;;;;;;;;;;18.42;68.10;100986.17;2226095;78;51277;-77
2023/01/01 14:04:06;;;;;;;;;;;;;;;18.39;67.27;100998.07;2267667;78;50389;-77
2023/01/01 14:07:26;;;;;;;;;;;;;;;18.36;66.43;100994.41;2269037;77;51559;-77
2023/01/01 14:10:29;;;;;;;;;;;;;;;18.36;65.74;101001.61;2266948;78;50498;-77
2023/01/01 14:13:31;;;;;;;;;;;;;;;18.36;64.03;101004.30;2245264;78;51114;-76
2023/01/01 14:16:32;;;;;;;;;;;;;;;18.25;65.17;101009.52;2268798;77;50479;-77
2023/01/01 14:19:34;;;;;;;;;;;;;;;18.19;64.72;101011.56;2269085;78;50299;-75
2023/01/01 14:22:36;;;;;;;;;;;;;;;18.17;64.55;101006.36;2269104;78;50340;-75
2023/01/01 14:25:37;;;;;;;;;;;;;;;18.16;64.09;101004.70;2245505;78;50038;-76
2023/01/01 14:28:39;;;;;;;;;;;;;;;18.16;63.65;101006.04;2268855;77;51416;-77
2023/01/01 14:31:41;;;;;;;;;;;;;;;18.13;63.90;100998.33;2269039;77;51619;-76
2023/01/01 14:34:43;;;;;;;;;;;;;;;18.14;64.19;101002.70;2269024;78;50433;-76
2023/01/01 14:37:45;;;;;;;;;;;;;;;18.12;64.54;100999.86;2245248;78;49656;-74
2023/01/01 14:40:46;;;;;;;;;;;;;;;18.12;64.99;100995.84;2265738;78;50336;-77
2023/01/01 14:43:48;;;;;;;;;;;;;;;18.10;65.40;100993.83;2268955;78;50396;-75
2023/01/01 14:46:51;;;;;;;;;;;;;;;18.11;65.75;101001.70;2268740;78;51649;-76
2023/01/01 14:49:53;;;;;;;;;;;;;;;18.64;64.46;101012.72;2245481;78;52631;-77
2023/01/01 14:52:56;;;;;;;;;;;;;;;18.56;64.69;101012.77;2269129;77;51526;-76
2023/01/01 14:55:58;;;;;;;;;;;;;;;18.48;64.80;101022.50;2269103;77;51412;-76
2023/01/01 14:59:18;;;;;;;;;;;;;;;18.35;65.99;101030.25;2269178;78;51522;-78
2023/01/01 15:02:21;;;;;;;;;;;;;;;18.28;66.19;101028.75;2246429;78;51424;-78
2023/01/01 15:05:24;;;;;;;;;;;;;;;18.28;66.44;101031.94;2269555;78;50785;-78
2023/01/01 15:08:30;;;;;;;;;;;;;;;18.22;66.83;101033.47;2262434;78;50461;-83
2023/01/01 15:11:29;;;;;;;;;;;;;;;18.22;67.20;101025.94;2249815;78;22288;-77
2023/01/01 15:14:31;;;;;;;;;;;;;;;18.20;67.09;101033.30;2264387;78;51515;-76
2023/01/01 15:17:34;;;;;;;;;;;;;;;18.19;66.94;101041.02;2264237;78;50846;-74
2023/01/01 15:20:36;;;;;;;;;;;;;;;18.16;67.37;101050.71;2264584;78;50792;-75
2023/01/01 15:23:37;;;;;;;;;;;;;;;18.19;66.68;101054.41;2265589;78;52362;-75
2023/01/01 15:26:41;;;;;;;;;;;;;;;18.22;66.26;101062.10;2267033;78;50949;-75
2023/01/01 15:29:44;;;;;;;;;;;;;;;18.18;66.29;101068.80;2265109;78;51494;-75
2023/01/01 15:32:46;;;;;;;;;;;;;;;18.14;66.31;101065.62;2265081;78;51515;-75
2023/01/01 15:35:49;;;;;;;;;;;;;;;18.13;66.35;101077.33;2265054;78;51497;-77
2023/01/01 15:38:50;;;;;;;;;;;;;;;18.11;66.35;101078.50;2241616;77;52559;-75
2023/01/01 15:41:52;;;;;;;;;;;;;;;18.11;66.37;101081.18;2266649;78;50278;-75
2023/01/01 15:44:53;;;;;;;;;;;;;;;18.09;66.34;101076.52;2265444;78;50287;-76
2023/01/01 15:47:59;;;;;;;;;;;;;;;18.08;66.54;101082.87;2265816;78;50637;-74